首页
METAR-TAF:

METAR-TAF

机场 :

图兹拉国际机场

图兹拉, 波斯尼亚和黑塞哥维那

纬度: 44-33N, 经度: 018-42E, 海拔: 306米

当前天气观测

该预报发布于36分钟前的08:30 UTC
风速1节,风向多变
温度 21°C
湿度 83%
气压 1020 hPa
能見度: 9000
少量云层高于1000英尺
散云层高于1500英尺

METAR: LQTZ 080830Z VRB01KT 9000 FEW010 SCT015 21/18 Q1020

时间: 11:06 (09:06 UTC)

预报

该预报发布于4小时和6分钟前的05:00 UTC
预报有效从08日的 06点(UTC)到 09日的 06点(UTC)
风速4节,风向
能见度10公里或以上
散云层高于4500英尺
短暂存在
从 08日的 06点(UTC)到 08日的 07点(UTC)
能見度: 1200
多云层高于200英尺
轻雾
几率 40% :
短暂存在
从 08日的 14点(UTC)到 08日的 24点(UTC)
风速15节,风向多变
能見度: 4000
少量云层高于1000英尺
少量云层高于3000英尺, 积雨云.
多云层高于4000英尺
雷暴, 雨
短暂存在
从 09日的 00点(UTC)到 09日的 06点(UTC)
能見度: 1500
多云层高于500英尺
小雨, 轻雾
几率 30% :
短暂存在
从 09日的 03点(UTC)到 09日的 05点(UTC)
能見度: 0500
多云层高于200英尺

TAF: LQTZ 080500Z 0806/0906 09004KT 9999 SCT045 TX29/0814Z TN17/0904Z TEMPO 0806/0807 1200 BR BKN002 PROB40 TEMPO 0814/0824 VRB15KT 4000 TSRA FEW010 FEW030CB BKN040 TEMPO 0900/0906 1500 -RA BR BKN005 PROB30 TEMPO 0903/0905 0500 FG BKN002

超过4000个机场的气象观测和天气预报(METAR&TAF报告)。

可查询的气象台以黄色和红色小点在地图上表示。

将鼠标移到小点上方,可查看气象台名称。

然后点击查看天气观测和预报。

如需切换地图:点击带黑十字的绿色按钮放大地图;点击带横线的绿色按钮缩小地图;或者点击绿色箭头查看邻近地区的地图。


METAR-TAF: